createdAt,value
2023-03-21T00:01:59.560Z,55
2023-03-21T00:04:44.772Z,54
2023-03-21T00:07:06.182Z,56
2023-03-21T00:09:39.713Z,54
2023-03-21T00:12:17.089Z,56
2023-03-21T00:14:50.878Z,54
2023-03-21T00:17:21.253Z,56
2023-03-21T00:19:53.557Z,53
2023-03-21T00:22:24.655Z,55
2023-03-21T00:24:55.624Z,52
2023-03-21T00:27:47.454Z,56
2023-03-21T00:29:59.425Z,52
2023-03-21T00:32:30.391Z,56
2023-03-21T00:35:34.693Z,64
2023-03-21T00:37:39.517Z,66
2023-03-21T00:40:19.604Z,72
2023-03-21T00:42:41.786Z,76
2023-03-21T00:45:17.651Z,72
2023-03-21T00:47:49.192Z,67
2023-03-21T00:50:21.793Z,58
2023-03-21T00:52:56.148Z,63
2023-03-21T00:55:29.617Z,57
2023-03-21T00:58:02.530Z,56
2023-03-21T01:00:34.624Z,56
2023-03-21T01:03:23.552Z,55
2023-03-21T01:05:47.913Z,52
2023-03-21T01:08:31.344Z,52
2023-03-21T01:11:00.341Z,52
2023-03-21T01:13:44.122Z,52
2023-03-21T01:16:10.959Z,52
2023-03-21T01:18:42.186Z,56
2023-03-21T01:21:12.885Z,56
2023-03-21T01:23:44.473Z,53
2023-03-21T01:26:19.365Z,55
2023-03-21T01:28:51.787Z,56
2023-03-21T01:31:22.887Z,52
2023-03-21T01:33:55.496Z,52
2023-03-21T01:36:27.113Z,52
2023-03-21T01:39:01.077Z,52
2023-03-21T01:41:42.309Z,56
2023-03-21T01:44:04.959Z,56
2023-03-21T01:46:54.261Z,56
2023-03-21T01:49:11.129Z,57
2023-03-21T01:51:42.548Z,54
2023-03-21T01:54:14.745Z,56
2023-03-21T01:56:48.460Z,52
2023-03-21T01:59:19.830Z,56
2023-03-21T02:01:59.827Z,56
2023-03-21T02:04:31.113Z,53
2023-03-21T02:07:02.044Z,52
2023-03-21T02:09:33.167Z,55
2023-03-21T02:12:08.343Z,53
2023-03-21T02:14:41.867Z,56
2023-03-21T02:17:12.754Z,56
2023-03-21T02:19:52.570Z,56
2023-03-21T02:22:15.596Z,60
2023-03-21T02:24:54.440Z,56
2023-03-21T02:27:19.157Z,56
2023-03-21T02:29:51.049Z,56
2023-03-21T02:32:36.460Z,56
2023-03-21T02:35:00.839Z,56
2023-03-21T02:37:38.273Z,53
2023-03-21T02:40:07.964Z,56
2023-03-21T02:42:39.151Z,55
2023-03-21T02:45:08.155Z,59
2023-03-21T02:47:39.546Z,56
2023-03-21T02:50:10.665Z,55
2023-03-21T02:52:40.139Z,56
2023-03-21T02:55:17.426Z,56
2023-03-21T02:57:52.826Z,56
2023-03-21T03:00:24.299Z,56
2023-03-21T03:03:06.533Z,56
2023-03-21T03:05:27.129Z,56
2023-03-21T03:07:57.750Z,60
2023-03-21T03:10:29.036Z,56
2023-03-21T03:13:00.688Z,59
2023-03-21T03:15:32.527Z,56
2023-03-21T03:18:02.893Z,56
2023-03-21T03:20:33.992Z,56
2023-03-21T03:23:05.648Z,55
2023-03-21T03:25:43.140Z,56
2023-03-21T03:28:11.916Z,59
2023-03-21T03:30:57.364Z,56
2023-03-21T03:33:18.922Z,56
2023-03-21T03:35:58.992Z,53
2023-03-21T03:38:20.989Z,56
2023-03-21T03:40:51.852Z,56
2023-03-21T03:43:23.333Z,56
2023-03-21T03:45:54.514Z,55
2023-03-21T03:48:25.785Z,56
2023-03-21T03:50:56.909Z,56
2023-03-21T03:53:32.608Z,59
2023-03-21T03:56:03.407Z,56
2023-03-21T03:58:44.765Z,55
2023-03-21T04:01:09.025Z,55
2023-03-21T04:03:49.666Z,60
2023-03-21T04:06:17.897Z,54
2023-03-21T04:08:48.622Z,56
2023-03-21T04:11:21.389Z,59
2023-03-21T04:13:52.200Z,53
2023-03-21T04:16:23.667Z,56
2023-03-21T04:19:00.539Z,52
2023-03-21T04:21:31.339Z,52
2023-03-21T04:24:02.229Z,52
2023-03-21T04:26:33.247Z,56
2023-03-21T04:29:04.374Z,57
2023-03-21T04:31:38.973Z,54
2023-03-21T04:34:09.457Z,55
2023-03-21T04:36:43.890Z,56
2023-03-21T04:39:24.907Z,56
2023-03-21T04:41:57.191Z,56
2023-03-21T04:44:30.228Z,56
2023-03-21T04:47:01.808Z,52
2023-03-21T04:49:33.318Z,54
2023-03-21T04:52:05.578Z,56
2023-03-21T04:54:37.068Z,56
2023-03-21T04:57:10.206Z,52
2023-03-21T04:59:41.066Z,56
2023-03-21T05:02:11.589Z,57
2023-03-21T05:04:42.329Z,56
2023-03-21T05:07:12.936Z,55
2023-03-21T05:09:43.950Z,56
2023-03-21T05:12:15.132Z,56
2023-03-21T05:14:49.405Z,60
2023-03-21T05:17:20.154Z,63
2023-03-21T05:19:52.016Z,56
2023-03-21T05:22:22.982Z,59
2023-03-21T05:24:54.098Z,56
2023-03-21T05:27:25.146Z,60
2023-03-21T05:29:56.803Z,56
2023-03-21T05:32:27.587Z,60
2023-03-21T05:34:58.310Z,60
2023-03-21T05:37:29.036Z,60
2023-03-21T05:39:59.569Z,59
2023-03-21T05:42:30.482Z,57
2023-03-21T05:45:01.296Z,59
2023-03-21T05:47:32.258Z,59
2023-03-21T05:50:03.208Z,56
2023-03-21T05:52:33.684Z,59
2023-03-21T05:55:04.489Z,57
2023-03-21T05:57:35.748Z,56
2023-03-21T06:00:06.928Z,56
2023-03-21T06:02:37.311Z,56
2023-03-21T06:05:07.959Z,60
2023-03-21T06:07:38.722Z,60
2023-03-21T06:10:09.286Z,64
2023-03-21T06:12:41.051Z,65
2023-03-21T06:15:12.098Z,58
2023-03-21T06:17:42.986Z,60
2023-03-21T06:20:14.085Z,60
2023-03-21T06:22:44.700Z,56
2023-03-21T06:25:15.574Z,63
2023-03-21T06:27:47.907Z,56
2023-03-21T06:30:22.361Z,55
2023-03-21T06:32:52.958Z,55
2023-03-21T06:35:23.849Z,56
2023-03-21T06:37:54.268Z,52
2023-03-21T06:40:26.867Z,56
2023-03-21T06:42:58.784Z,55
2023-03-21T06:45:29.270Z,49
2023-03-21T06:47:59.768Z,49
2023-03-21T06:50:30.725Z,52
2023-03-21T06:53:02.107Z,48
2023-03-21T06:55:33.121Z,49
2023-03-21T06:58:03.979Z,52
2023-03-21T07:00:35.234Z,50
2023-03-21T07:03:11.452Z,48
2023-03-21T07:05:45.352Z,48
2023-03-21T07:08:19.740Z,49
2023-03-21T07:10:50.600Z,48
2023-03-21T07:13:24.893Z,53
2023-03-21T07:15:55.419Z,48
2023-03-21T07:18:27.716Z,48
2023-03-21T07:21:04.485Z,48
2023-03-21T07:23:36.347Z,48
2023-03-21T07:26:07.296Z,45
2023-03-21T07:28:39.561Z,47
2023-03-21T07:31:10.818Z,49
2023-03-21T07:33:42.552Z,51
2023-03-21T07:36:13.378Z,48
2023-03-21T07:38:46.228Z,49
2023-03-21T07:41:17.702Z,44
2023-03-21T07:43:49.158Z,48
2023-03-21T07:46:19.898Z,49
2023-03-21T07:48:50.281Z,51
2023-03-21T07:51:23.915Z,48
2023-03-21T07:53:57.345Z,48
2023-03-21T07:56:28.141Z,48
2023-03-21T07:59:00.346Z,48
2023-03-21T08:01:35.138Z,48
2023-03-21T08:04:06.102Z,48
2023-03-21T08:06:36.490Z,48
2023-03-21T08:09:09.835Z,44
2023-03-21T08:11:40.574Z,45
2023-03-21T08:14:11.081Z,47
2023-03-21T08:16:41.852Z,46
2023-03-21T08:19:13.246Z,44
2023-03-21T08:21:43.987Z,44
2023-03-21T08:24:14.507Z,44
2023-03-21T08:26:45.524Z,44
2023-03-21T08:29:19.415Z,44
2023-03-21T08:31:50.932Z,48
2023-03-21T08:34:21.479Z,44
2023-03-21T08:36:52.248Z,44
2023-03-21T08:39:24.695Z,41
2023-03-21T08:41:59.588Z,44
2023-03-21T08:44:30.555Z,45
2023-03-21T08:47:00.665Z,40
2023-03-21T08:49:30.984Z,43
2023-03-21T08:52:01.513Z,40
2023-03-21T08:54:34.069Z,40
2023-03-21T08:57:05.265Z,42
2023-03-21T08:59:35.381Z,44
2023-03-21T09:02:05.479Z,44
2023-03-21T09:04:38.521Z,40
2023-03-21T09:07:11.791Z,39
2023-03-21T09:09:41.803Z,41
2023-03-21T09:12:11.789Z,44
2023-03-21T09:14:42.193Z,40
2023-03-21T09:17:14.404Z,41
2023-03-21T09:19:43.450Z,40
2023-03-21T09:22:14.377Z,44
2023-03-21T09:24:45.011Z,40
2023-03-21T09:29:53.813Z,36
2023-03-21T09:32:23.663Z,40
2023-03-21T09:34:58.229Z,43
2023-03-21T09:37:28.203Z,40
2023-03-21T09:39:57.180Z,39
2023-03-21T09:42:31.666Z,40
2023-03-21T09:47:45.151Z,40
2023-03-21T09:50:18.377Z,40
2023-03-21T09:52:48.619Z,42
2023-03-21T09:55:23.525Z,40
2023-03-21T09:58:01.623Z,36
2023-03-21T10:00:34.058Z,36
2023-03-21T10:03:06.074Z,40
2023-03-21T10:05:37.316Z,39
2023-03-21T10:08:14.062Z,37
2023-03-21T10:10:45.294Z,36
2023-03-21T10:13:14.806Z,38
2023-03-21T10:15:45.984Z,40
2023-03-21T10:18:27.418Z,38
2023-03-21T10:20:59.541Z,36
2023-03-21T10:23:30.826Z,36
2023-03-21T10:26:01.958Z,40
2023-03-21T10:28:42.537Z,36
2023-03-21T10:31:07.990Z,39
2023-03-21T10:33:38.674Z,36
2023-03-21T10:36:10.474Z,36
2023-03-21T10:38:44.932Z,39
2023-03-21T10:41:15.951Z,36
2023-03-21T10:43:50.438Z,36
2023-03-21T10:46:21.516Z,36
2023-03-21T10:48:55.589Z,39
2023-03-21T10:51:25.956Z,36
2023-03-21T10:53:58.803Z,36
2023-03-21T10:56:29.226Z,36
2023-03-21T10:59:01.705Z,36
2023-03-21T11:01:32.247Z,37
2023-03-21T11:04:03.175Z,36
2023-03-21T11:06:40.491Z,36
2023-03-21T11:09:11.442Z,40
2023-03-21T11:11:43.628Z,36
2023-03-21T11:14:13.905Z,39
2023-03-21T11:16:46.089Z,36
2023-03-21T11:19:16.758Z,40
2023-03-21T11:21:49.369Z,36
2023-03-21T11:24:20.217Z,36
2023-03-21T11:26:50.305Z,34
2023-03-21T11:29:20.820Z,36
2023-03-21T11:31:51.676Z,36
2023-03-21T11:34:26.431Z,32
2023-03-21T11:36:56.999Z,34
2023-03-21T11:39:28.242Z,40
2023-03-21T11:41:58.602Z,32
2023-03-21T11:44:29.140Z,33
2023-03-21T11:46:59.986Z,36
2023-03-21T11:49:30.730Z,32
2023-03-21T11:52:02.116Z,33
2023-03-21T11:54:32.479Z,30
2023-03-21T11:57:02.746Z,30
2023-03-21T11:59:33.105Z,29
2023-03-21T12:02:03.904Z,28
2023-03-21T12:04:34.838Z,31
2023-03-21T12:07:11.206Z,28
2023-03-21T12:09:44.524Z,33
2023-03-21T12:12:20.192Z,36
2023-03-21T12:14:48.036Z,32
2023-03-21T12:17:18.149Z,32
2023-03-21T12:19:48.254Z,32
2023-03-21T12:22:23.194Z,32
2023-03-21T12:24:54.331Z,36
2023-03-21T12:27:24.741Z,32
2023-03-21T12:29:55.246Z,32
2023-03-21T12:32:35.680Z,32
2023-03-21T12:35:08.650Z,28
2023-03-21T12:37:38.786Z,30
2023-03-21T12:40:15.423Z,36
2023-03-21T12:42:46.368Z,28
2023-03-21T12:45:18.046Z,25
2023-03-21T12:47:50.014Z,31
2023-03-21T12:50:20.864Z,29
2023-03-21T12:52:51.573Z,29
2023-03-21T12:55:21.910Z,28
2023-03-21T12:57:57.355Z,28
2023-03-21T13:00:23.316Z,32
2023-03-21T13:02:53.976Z,32
2023-03-21T13:05:24.939Z,32
2023-03-21T13:07:54.900Z,32
2023-03-21T13:10:25.655Z,32
2023-03-21T13:12:58.468Z,28
2023-03-21T13:15:27.381Z,28
2023-03-21T13:17:58.673Z,28
2023-03-21T13:20:30.891Z,28
2023-03-21T13:23:01.934Z,28
2023-03-21T13:25:32.145Z,28
2023-03-21T13:28:07.437Z,28
2023-03-21T13:30:38.004Z,28
2023-03-21T13:33:08.199Z,24
2023-03-21T13:35:39.763Z,24
2023-03-21T13:38:10.468Z,20
2023-03-21T13:40:41.386Z,26
2023-03-21T13:43:13.869Z,24
2023-03-21T13:45:45.910Z,29
2023-03-21T13:48:16.754Z,28
2023-03-21T13:50:48.456Z,28
2023-03-21T13:53:19.053Z,29
2023-03-21T13:55:49.811Z,28
2023-03-21T13:58:23.597Z,28
2023-03-21T14:00:55.540Z,28
2023-03-21T14:03:26.211Z,30
2023-03-21T14:05:57.628Z,26
2023-03-21T14:08:37.049Z,28
2023-03-21T14:11:00.587Z,32
2023-03-21T14:13:33.219Z,28
2023-03-21T14:16:04.651Z,24
2023-03-21T14:18:52.696Z,27
2023-03-21T14:21:09.336Z,32
2023-03-21T14:23:42.656Z,26
2023-03-21T14:26:14.098Z,28
2023-03-21T14:28:45.307Z,28
2023-03-21T14:31:15.425Z,27
2023-03-21T14:33:47.246Z,32
2023-03-21T14:36:19.663Z,28
2023-03-21T14:38:49.700Z,31
2023-03-21T14:41:20.432Z,28
2023-03-21T14:43:52.275Z,32
2023-03-21T14:46:23.035Z,28
2023-03-21T14:48:53.640Z,28
2023-03-21T14:51:36.057Z,28
2023-03-21T14:54:07.476Z,22
2023-03-21T14:56:41.226Z,24
2023-03-21T14:59:14.346Z,32
2023-03-21T15:01:44.655Z,25
2023-03-21T15:04:15.264Z,29
2023-03-21T15:09:16.987Z,25
2023-03-21T15:11:51.231Z,25
2023-03-21T15:14:21.578Z,23
2023-03-21T15:16:53.752Z,24
2023-03-21T15:19:24.931Z,24
2023-03-21T15:21:57.086Z,20
2023-03-21T15:24:28.246Z,24
2023-03-21T15:27:00.596Z,27
2023-03-21T15:29:33.254Z,29
2023-03-21T15:32:03.339Z,28
2023-03-21T15:34:36.525Z,24
2023-03-21T15:37:06.918Z,24
2023-03-21T15:39:39.204Z,20
2023-03-21T15:42:09.076Z,24
2023-03-21T15:44:41.111Z,20
2023-03-21T15:47:12.370Z,24
2023-03-21T15:49:43.563Z,20
2023-03-21T15:52:17.213Z,24
2023-03-21T15:54:49.100Z,24
2023-03-21T15:57:19.737Z,28
2023-03-21T15:59:50.958Z,28
2023-03-21T16:02:21.322Z,29
2023-03-21T16:04:51.559Z,28
2023-03-21T16:07:24.131Z,29
2023-03-21T16:09:54.654Z,28
2023-03-21T16:12:25.363Z,32
2023-03-21T16:14:55.661Z,32
2023-03-21T16:17:28.487Z,32
2023-03-21T16:20:00.676Z,36
2023-03-21T16:22:31.140Z,36
2023-03-21T16:25:03.467Z,35
2023-03-21T16:27:33.673Z,32
2023-03-21T16:30:06.090Z,36
2023-03-21T16:32:41.256Z,36
2023-03-21T16:35:22.349Z,40
2023-03-21T16:37:53.501Z,36
2023-03-21T16:40:24.035Z,40
2023-03-21T16:42:54.518Z,32
2023-03-21T16:45:24.729Z,44
2023-03-21T16:48:03.795Z,50
2023-03-21T16:50:35.544Z,48
2023-03-21T16:53:05.677Z,48
2023-03-21T16:55:36.484Z,40
2023-03-21T16:58:11.035Z,40
2023-03-21T17:00:41.902Z,44
2023-03-21T17:03:12.306Z,40
2023-03-21T17:05:46.910Z,40
2023-03-21T17:08:19.132Z,40
2023-03-21T17:10:52.623Z,41
2023-03-21T17:13:26.313Z,40
2023-03-21T17:15:57.291Z,58
2023-03-21T17:18:27.589Z,72
2023-03-21T17:20:58.488Z,40
2023-03-21T17:23:28.482Z,37
2023-03-21T17:25:58.659Z,39
2023-03-21T17:28:29.969Z,44
2023-03-21T17:30:59.589Z,44
2023-03-21T17:33:31.229Z,46
2023-03-21T17:36:01.978Z,48
2023-03-21T17:38:32.357Z,47
2023-03-21T17:41:02.852Z,48
2023-03-21T17:43:33.652Z,44
2023-03-21T17:46:04.250Z,48
2023-03-21T17:48:36.142Z,49
2023-03-21T17:51:14.782Z,51
2023-03-21T17:53:47.123Z,49
2023-03-21T17:56:17.289Z,46
2023-03-21T17:58:53.320Z,51
2023-03-21T18:01:23.903Z,46
2023-03-21T18:03:54.532Z,44
2023-03-21T18:06:25.317Z,45
2023-03-21T18:08:55.978Z,44
2023-03-21T18:11:26.711Z,44
2023-03-21T18:14:15.648Z,44
2023-03-21T18:16:36.505Z,44
2023-03-21T18:19:10.568Z,47
2023-03-21T18:21:41.041Z,45
2023-03-21T18:24:12.814Z,44
2023-03-21T18:26:47.097Z,46
2023-03-21T18:32:02.764Z,44
2023-03-21T18:34:21.168Z,44
2023-03-21T18:36:55.216Z,48
2023-03-21T18:39:25.927Z,48
2023-03-21T18:41:59.986Z,45
2023-03-21T18:44:31.076Z,48
2023-03-21T18:47:01.272Z,48
2023-03-21T18:50:12.327Z,52
2023-03-21T18:52:04.204Z,44
2023-03-21T18:54:35.138Z,48
2023-03-21T18:59:39.826Z,44
2023-03-21T19:02:14.656Z,53
2023-03-21T19:04:46.905Z,50
2023-03-21T19:07:18.048Z,52
2023-03-21T19:10:16.803Z,48
2023-03-21T19:12:21.541Z,48
2023-03-21T19:14:51.840Z,48
2023-03-21T19:18:23.089Z,48
2023-03-21T19:19:53.336Z,47
2023-03-21T19:22:24.320Z,48
2023-03-21T19:24:55.924Z,48
2023-03-21T19:27:33.276Z,48
2023-03-21T19:30:14.246Z,51
2023-03-21T19:32:42.597Z,54
2023-03-21T19:35:16.286Z,55
2023-03-21T19:37:46.352Z,48
2023-03-21T19:40:16.709Z,52
2023-03-21T19:42:46.966Z,50
2023-03-21T19:45:21.088Z,52
2023-03-21T19:47:53.170Z,52
2023-03-21T19:52:56.490Z,59
2023-03-21T19:55:27.253Z,52
2023-03-21T19:58:02.093Z,52
2023-03-21T20:00:33.408Z,48
2023-03-21T20:03:05.930Z,48
2023-03-21T20:05:34.923Z,52
2023-03-21T20:08:09.854Z,49
2023-03-21T20:10:37.118Z,53
2023-03-21T20:13:07.318Z,48
2023-03-21T20:15:45.807Z,47
2023-03-21T20:18:17.443Z,51
2023-03-21T20:20:53.881Z,52
2023-03-21T20:23:33.596Z,48
2023-03-21T20:26:08.869Z,51
2023-03-21T20:28:55.844Z,52
2023-03-21T20:31:16.875Z,61
2023-03-21T20:33:46.066Z,59
2023-03-21T20:38:46.096Z,64
2023-03-21T20:41:16.521Z,66
2023-03-21T20:46:32.946Z,64
2023-03-21T20:49:03.146Z,70
2023-03-21T20:54:06.797Z,80
2023-03-21T20:56:50.228Z,84
2023-03-21T20:59:27.446Z,83
2023-03-21T21:01:53.712Z,68
2023-03-21T21:04:38.314Z,75
2023-03-21T21:06:58.665Z,75
2023-03-21T21:09:29.400Z,70
2023-03-21T21:12:06.803Z,84
2023-03-21T21:14:31.270Z,80
2023-03-21T21:17:17.523Z,77
2023-03-21T21:19:35.240Z,80
2023-03-21T21:22:06.616Z,79
2023-03-21T21:24:37.954Z,81
2023-03-21T21:27:11.428Z,78
2023-03-21T21:29:43.750Z,77
2023-03-21T21:32:12.247Z,85
2023-03-21T21:34:42.423Z,84
2023-03-21T21:37:12.315Z,87
2023-03-21T21:39:41.023Z,88
2023-03-21T21:42:12.016Z,79
2023-03-21T21:44:42.385Z,78
2023-03-21T21:47:15.559Z,77
2023-03-21T21:49:47.265Z,79
2023-03-21T21:52:19.320Z,80
2023-03-21T21:54:54.186Z,81
2023-03-21T21:57:25.123Z,79
2023-03-21T21:59:55.303Z,80
2023-03-21T22:02:26.250Z,84
2023-03-21T22:04:56.619Z,80
2023-03-21T22:07:30.113Z,81
2023-03-21T22:10:00.685Z,81
2023-03-21T22:12:33.117Z,82
2023-03-21T22:15:03.441Z,77
2023-03-21T22:17:36.867Z,75
2023-03-21T22:20:09.575Z,82
2023-03-21T22:22:39.997Z,90
2023-03-21T22:25:13.416Z,81
2023-03-21T22:27:43.759Z,73
2023-03-21T22:30:14.136Z,79
2023-03-21T22:32:47.117Z,76
2023-03-21T22:35:16.030Z,79
2023-03-21T22:37:46.334Z,78
2023-03-21T22:40:16.924Z,82
2023-03-21T22:42:47.463Z,80
2023-03-21T22:45:17.547Z,71
2023-03-21T22:47:55.017Z,68
2023-03-21T22:50:25.587Z,65
2023-03-21T22:52:58.829Z,65
2023-03-21T22:55:29.592Z,71
2023-03-21T22:57:59.694Z,71
2023-03-21T23:00:30.819Z,69
2023-03-21T23:03:01.370Z,64
2023-03-21T23:05:36.179Z,70
2023-03-21T23:08:06.218Z,60
2023-03-21T23:10:37.156Z,69
2023-03-21T23:13:10.110Z,68
2023-03-21T23:15:41.495Z,69
2023-03-21T23:18:11.767Z,56
2023-03-21T23:20:42.624Z,70
2023-03-21T23:23:12.439Z,74
2023-03-21T23:25:42.852Z,66
2023-03-21T23:28:16.381Z,64
2023-03-21T23:30:46.984Z,76
2023-03-21T23:33:18.334Z,79
2023-03-21T23:35:48.992Z,76
2023-03-21T23:38:20.008Z,67
2023-03-21T23:40:51.584Z,72
2023-03-21T23:43:26.744Z,64
2023-03-21T23:45:57.239Z,64
2023-03-21T23:48:27.575Z,64
2023-03-21T23:50:58.845Z,68
2023-03-21T23:53:29.237Z,76
2023-03-21T23:55:59.847Z,68
2023-03-21T23:58:30.991Z,72
